sensor_id;sensor_type;location;lat;lon;timestamp;P1;durP1;ratioP1;P2;durP2;ratioP2
64252;SDS011;50592;52.958;-7.470;2022-10-31T00:01:34;16.40;;;2.55;;
64252;SDS011;50592;52.958;-7.470;2022-10-31T00:04:06;17.02;;;2.20;;
64252;SDS011;50592;52.958;-7.470;2022-10-31T00:06:36;15.27;;;2.00;;
64252;SDS011;50592;52.958;-7.470;2022-10-31T00:09:05;13.93;;;2.55;;
64252;SDS011;50592;52.958;-7.470;2022-10-31T00:11:38;15.27;;;2.10;;
64252;SDS011;50592;52.958;-7.470;2022-10-31T00:14:08;16.50;;;2.70;;
64252;SDS011;50592;52.958;-7.470;2022-10-31T00:16:35;13.38;;;2.47;;
64252;SDS011;50592;52.958;-7.470;2022-10-31T00:19:05;18.63;;;2.22;;
64252;SDS011;50592;52.958;-7.470;2022-10-31T00:21:33;20.17;;;2.75;;
64252;SDS011;50592;52.958;-7.470;2022-10-31T00:24:04;20.50;;;2.80;;
64252;SDS011;50592;52.958;-7.470;2022-10-31T00:26:34;22.52;;;3.08;;
64252;SDS011;50592;52.958;-7.470;2022-10-31T00:29:04;16.63;;;2.50;;
64252;SDS011;50592;52.958;-7.470;2022-10-31T00:31:31;16.17;;;2.67;;
64252;SDS011;50592;52.958;-7.470;2022-10-31T00:34:01;16.08;;;2.53;;
64252;SDS011;50592;52.958;-7.470;2022-10-31T00:36:29;14.23;;;2.65;;
64252;SDS011;50592;52.958;-7.470;2022-10-31T00:38:59;15.90;;;2.67;;
64252;SDS011;50592;52.958;-7.470;2022-10-31T00:41:26;21.10;;;2.65;;
64252;SDS011;50592;52.958;-7.470;2022-10-31T00:43:57;18.13;;;2.55;;
64252;SDS011;50592;52.958;-7.470;2022-10-31T00:46:27;20.00;;;2.85;;
64252;SDS011;50592;52.958;-7.470;2022-10-31T00:48:56;17.98;;;2.72;;
64252;SDS011;50592;52.958;-7.470;2022-10-31T00:51:26;22.40;;;2.85;;
64252;SDS011;50592;52.958;-7.470;2022-10-31T00:53:56;21.58;;;3.58;;
64252;SDS011;50592;52.958;-7.470;2022-10-31T00:56:26;22.85;;;3.33;;
64252;SDS011;50592;52.958;-7.470;2022-10-31T00:58:53;23.45;;;3.33;;
64252;SDS011;50592;52.958;-7.470;2022-10-31T01:01:22;34.70;;;4.05;;
64252;SDS011;50592;52.958;-7.470;2022-10-31T01:03:52;23.67;;;2.80;;
64252;SDS011;50592;52.958;-7.470;2022-10-31T01:06:22;19.35;;;3.13;;
64252;SDS011;50592;52.958;-7.470;2022-10-31T01:08:52;20.23;;;3.42;;
64252;SDS011;50592;52.958;-7.470;2022-10-31T01:11:22;23.25;;;2.92;;
64252;SDS011;50592;52.958;-7.470;2022-10-31T01:13:50;22.58;;;3.55;;
64252;SDS011;50592;52.958;-7.470;2022-10-31T01:16:23;18.83;;;2.47;;
64252;SDS011;50592;52.958;-7.470;2022-10-31T01:18:51;20.63;;;3.17;;
64252;SDS011;50592;52.958;-7.470;2022-10-31T01:21:22;18.27;;;3.35;;
64252;SDS011;50592;52.958;-7.470;2022-10-31T01:23:52;19.58;;;2.85;;
64252;SDS011;50592;52.958;-7.470;2022-10-31T01:26:24;26.48;;;3.45;;
64252;SDS011;50592;52.958;-7.470;2022-10-31T01:28:55;31.90;;;3.25;;
64252;SDS011;50592;52.958;-7.470;2022-10-31T01:31:28;24.67;;;2.78;;
64252;SDS011;50592;52.958;-7.470;2022-10-31T01:34:00;18.25;;;2.85;;
64252;SDS011;50592;52.958;-7.470;2022-10-31T01:36:32;23.02;;;3.47;;
64252;SDS011;50592;52.958;-7.470;2022-10-31T01:39:07;19.95;;;2.63;;
64252;SDS011;50592;52.958;-7.470;2022-10-31T01:41:42;15.05;;;2.63;;
64252;SDS011;50592;52.958;-7.470;2022-10-31T01:49:21;17.50;;;2.60;;
64252;SDS011;50592;52.958;-7.470;2022-10-31T01:55:21;15.70;;;2.67;;
64252;SDS011;50592;52.958;-7.470;2022-10-31T01:57:59;18.08;;;3.05;;
64252;SDS011;50592;52.958;-7.470;2022-10-31T02:00:33;19.52;;;2.83;;
64252;SDS011;50592;52.958;-7.470;2022-10-31T02:03:03;14.63;;;1.73;;
64252;SDS011;50592;52.958;-7.470;2022-10-31T02:05:30;18.83;;;2.25;;
64252;SDS011;50592;52.958;-7.470;2022-10-31T02:08:13;16.10;;;2.35;;
64252;SDS011;50592;52.958;-7.470;2022-10-31T02:10:48;17.02;;;3.03;;
64252;SDS011;50592;52.958;-7.470;2022-10-31T02:13:18;13.30;;;1.90;;
64252;SDS011;50592;52.958;-7.470;2022-10-31T02:15:54;14.60;;;2.45;;
64252;SDS011;50592;52.958;-7.470;2022-10-31T02:18:27;17.95;;;2.40;;
64252;SDS011;50592;52.958;-7.470;2022-10-31T02:30:07;20.75;;;2.90;;
64252;SDS011;50592;52.958;-7.470;2022-10-31T02:35:23;16.65;;;1.92;;
64252;SDS011;50592;52.958;-7.470;2022-10-31T02:38:14;12.90;;;1.85;;
64252;SDS011;50592;52.958;-7.470;2022-10-31T02:43:58;16.27;;;1.95;;
64252;SDS011;50592;52.958;-7.470;2022-10-31T02:46:54;17.27;;;2.83;;
64252;SDS011;50592;52.958;-7.470;2022-10-31T02:52:29;22.85;;;2.97;;
64252;SDS011;50592;52.958;-7.470;2022-10-31T02:55:09;15.32;;;2.15;;
64252;SDS011;50592;52.958;-7.470;2022-10-31T02:57:57;17.50;;;2.42;;
64252;SDS011;50592;52.958;-7.470;2022-10-31T03:01:07;16.67;;;2.20;;
64252;SDS011;50592;52.958;-7.470;2022-10-31T03:06:45;19.77;;;2.92;;
64252;SDS011;50592;52.958;-7.470;2022-10-31T03:17:34;17.73;;;2.50;;
64252;SDS011;50592;52.958;-7.470;2022-10-31T03:20:08;20.35;;;2.85;;
64252;SDS011;50592;52.958;-7.470;2022-10-31T03:22:40;17.83;;;2.63;;
64252;SDS011;50592;52.958;-7.470;2022-10-31T03:25:12;19.25;;;2.53;;
64252;SDS011;50592;52.958;-7.470;2022-10-31T03:27:43;22.92;;;2.60;;
64252;SDS011;50592;52.958;-7.470;2022-10-31T03:30:15;20.35;;;2.22;;
64252;SDS011;50592;52.958;-7.470;2022-10-31T03:32:54;22.70;;;3.00;;
64252;SDS011;50592;52.958;-7.470;2022-10-31T03:35:26;22.13;;;2.78;;
64252;SDS011;50592;52.958;-7.470;2022-10-31T03:37:58;18.73;;;2.58;;
64252;SDS011;50592;52.958;-7.470;2022-10-31T03:40:30;19.45;;;3.05;;
64252;SDS011;50592;52.958;-7.470;2022-10-31T03:43:00;21.90;;;3.08;;
64252;SDS011;50592;52.958;-7.470;2022-10-31T03:45:37;21.67;;;2.60;;
64252;SDS011;50592;52.958;-7.470;2022-10-31T03:48:12;24.42;;;3.08;;
64252;SDS011;50592;52.958;-7.470;2022-10-31T03:50:47;26.38;;;3.03;;
64252;SDS011;50592;52.958;-7.470;2022-10-31T03:53:31;16.98;;;2.80;;
64252;SDS011;50592;52.958;-7.470;2022-10-31T03:58:58;21.88;;;3.35;;
64252;SDS011;50592;52.958;-7.470;2022-10-31T04:01:32;27.70;;;3.97;;
64252;SDS011;50592;52.958;-7.470;2022-10-31T04:04:03;18.17;;;2.65;;
64252;SDS011;50592;52.958;-7.470;2022-10-31T04:06:34;26.48;;;3.28;;
64252;SDS011;50592;52.958;-7.470;2022-10-31T04:09:07;23.02;;;2.80;;
64252;SDS011;50592;52.958;-7.470;2022-10-31T04:11:37;22.92;;;3.10;;
64252;SDS011;50592;52.958;-7.470;2022-10-31T04:14:45;19.88;;;3.03;;
64252;SDS011;50592;52.958;-7.470;2022-10-31T04:17:16;26.48;;;3.08;;
64252;SDS011;50592;52.958;-7.470;2022-10-31T04:19:48;25.40;;;2.80;;
64252;SDS011;50592;52.958;-7.470;2022-10-31T04:22:18;19.98;;;2.88;;
64252;SDS011;50592;52.958;-7.470;2022-10-31T04:24:45;28.65;;;3.78;;
64252;SDS011;50592;52.958;-7.470;2022-10-31T04:27:14;21.55;;;2.88;;
64252;SDS011;50592;52.958;-7.470;2022-10-31T04:29:44;28.50;;;3.00;;
64252;SDS011;50592;52.958;-7.470;2022-10-31T04:32:11;13.27;;;2.20;;
64252;SDS011;50592;52.958;-7.470;2022-10-31T04:34:41;20.08;;;2.53;;
64252;SDS011;50592;52.958;-7.470;2022-10-31T04:37:08;22.35;;;3.47;;
64252;SDS011;50592;52.958;-7.470;2022-10-31T04:39:38;23.38;;;2.83;;
64252;SDS011;50592;52.958;-7.470;2022-10-31T04:42:30;21.58;;;3.20;;
64252;SDS011;50592;52.958;-7.470;2022-10-31T04:45:04;25.25;;;3.05;;
64252;SDS011;50592;52.958;-7.470;2022-10-31T04:47:33;22.75;;;2.80;;
64252;SDS011;50592;52.958;-7.470;2022-10-31T04:50:03;13.48;;;2.03;;
64252;SDS011;50592;52.958;-7.470;2022-10-31T04:52:39;17.77;;;2.10;;
64252;SDS011;50592;52.958;-7.470;2022-10-31T04:55:11;17.90;;;2.13;;
64252;SDS011;50592;52.958;-7.470;2022-10-31T04:58:01;30.15;;;3.47;;
64252;SDS011;50592;52.958;-7.470;2022-10-31T05:00:28;23.67;;;3.08;;
64252;SDS011;50592;52.958;-7.470;2022-10-31T05:02:59;23.42;;;3.08;;
64252;SDS011;50592;52.958;-7.470;2022-10-31T05:05:29;22.45;;;4.13;;
64252;SDS011;50592;52.958;-7.470;2022-10-31T05:07:59;22.40;;;3.03;;
64252;SDS011;50592;52.958;-7.470;2022-10-31T05:10:30;22.83;;;3.38;;
64252;SDS011;50592;52.958;-7.470;2022-10-31T05:13:00;20.55;;;2.50;;
64252;SDS011;50592;52.958;-7.470;2022-10-31T05:16:00;23.08;;;3.15;;
64252;SDS011;50592;52.958;-7.470;2022-10-31T05:19:03;16.20;;;2.58;;
64252;SDS011;50592;52.958;-7.470;2022-10-31T05:22:00;26.90;;;4.75;;
64252;SDS011;50592;52.958;-7.470;2022-10-31T05:24:29;15.23;;;2.55;;
64252;SDS011;50592;52.958;-7.470;2022-10-31T05:26:57;15.23;;;2.70;;
64252;SDS011;50592;52.958;-7.470;2022-10-31T05:29:26;17.27;;;2.63;;
64252;SDS011;50592;52.958;-7.470;2022-10-31T05:31:53;16.85;;;2.63;;
64252;SDS011;50592;52.958;-7.470;2022-10-31T05:34:42;17.35;;;2.53;;
64252;SDS011;50592;52.958;-7.470;2022-10-31T05:37:28;12.50;;;1.85;;
64252;SDS011;50592;52.958;-7.470;2022-10-31T05:39:57;12.48;;;1.50;;
64252;SDS011;50592;52.958;-7.470;2022-10-31T05:42:24;13.30;;;1.88;;
64252;SDS011;50592;52.958;-7.470;2022-10-31T05:44:52;14.65;;;2.15;;
64252;SDS011;50592;52.958;-7.470;2022-10-31T05:47:30;9.23;;;1.33;;
64252;SDS011;50592;52.958;-7.470;2022-10-31T05:50:19;10.43;;;2.13;;
64252;SDS011;50592;52.958;-7.470;2022-10-31T05:52:59;17.45;;;2.33;;
64252;SDS011;50592;52.958;-7.470;2022-10-31T05:55:35;16.67;;;3.67;;
64252;SDS011;50592;52.958;-7.470;2022-10-31T05:58:07;17.40;;;2.92;;
64252;SDS011;50592;52.958;-7.470;2022-10-31T06:00:38;17.20;;;2.15;;
64252;SDS011;50592;52.958;-7.470;2022-10-31T06:03:08;19.50;;;2.33;;
64252;SDS011;50592;52.958;-7.470;2022-10-31T06:05:59;17.50;;;2.33;;
64252;SDS011;50592;52.958;-7.470;2022-10-31T06:08:32;21.17;;;2.72;;
64252;SDS011;50592;52.958;-7.470;2022-10-31T06:11:06;15.65;;;2.13;;
64252;SDS011;50592;52.958;-7.470;2022-10-31T06:13:51;21.73;;;3.17;;
64252;SDS011;50592;52.958;-7.470;2022-10-31T06:16:30;22.90;;;3.15;;
64252;SDS011;50592;52.958;-7.470;2022-10-31T06:19:05;25.85;;;3.03;;
64252;SDS011;50592;52.958;-7.470;2022-10-31T06:21:35;26.92;;;3.10;;
64252;SDS011;50592;52.958;-7.470;2022-10-31T06:24:06;23.38;;;3.15;;
64252;SDS011;50592;52.958;-7.470;2022-10-31T06:26:58;20.35;;;3.35;;
64252;SDS011;50592;52.958;-7.470;2022-10-31T06:29:25;16.17;;;3.22;;
64252;SDS011;50592;52.958;-7.470;2022-10-31T06:32:12;25.95;;;3.28;;
64252;SDS011;50592;52.958;-7.470;2022-10-31T06:34:42;22.10;;;3.10;;
64252;SDS011;50592;52.958;-7.470;2022-10-31T06:37:12;20.27;;;3.08;;
64252;SDS011;50592;52.958;-7.470;2022-10-31T06:39:45;28.55;;;3.67;;
64252;SDS011;50592;52.958;-7.470;2022-10-31T06:42:17;24.35;;;3.78;;
64252;SDS011;50592;52.958;-7.470;2022-10-31T06:44:43;23.40;;;3.22;;
64252;SDS011;50592;52.958;-7.470;2022-10-31T06:47:50;21.67;;;2.92;;
64252;SDS011;50592;52.958;-7.470;2022-10-31T06:50:24;21.40;;;2.80;;
64252;SDS011;50592;52.958;-7.470;2022-10-31T06:52:58;26.80;;;2.97;;
64252;SDS011;50592;52.958;-7.470;2022-10-31T06:55:28;21.30;;;2.63;;
64252;SDS011;50592;52.958;-7.470;2022-10-31T06:57:58;17.05;;;2.58;;
64252;SDS011;50592;52.958;-7.470;2022-10-31T07:00:27;23.67;;;3.22;;
64252;SDS011;50592;52.958;-7.470;2022-10-31T07:03:11;26.13;;;3.45;;
64252;SDS011;50592;52.958;-7.470;2022-10-31T07:05:39;23.45;;;2.80;;
64252;SDS011;50592;52.958;-7.470;2022-10-31T07:08:09;14.32;;;2.78;;
64252;SDS011;50592;52.958;-7.470;2022-10-31T07:10:38;24.75;;;3.53;;
64252;SDS011;50592;52.958;-7.470;2022-10-31T07:13:12;18.73;;;2.38;;
64252;SDS011;50592;52.958;-7.470;2022-10-31T07:15:48;23.23;;;2.80;;
64252;SDS011;50592;52.958;-7.470;2022-10-31T07:18:18;16.70;;;2.47;;
64252;SDS011;50592;52.958;-7.470;2022-10-31T07:20:47;17.20;;;2.60;;
64252;SDS011;50592;52.958;-7.470;2022-10-31T07:23:19;16.08;;;2.38;;
64252;SDS011;50592;52.958;-7.470;2022-10-31T07:25:58;17.70;;;2.72;;
64252;SDS011;50592;52.958;-7.470;2022-10-31T07:28:39;17.27;;;2.67;;
64252;SDS011;50592;52.958;-7.470;2022-10-31T07:31:06;17.13;;;2.88;;
64252;SDS011;50592;52.958;-7.470;2022-10-31T07:33:38;23.65;;;3.08;;
64252;SDS011;50592;52.958;-7.470;2022-10-31T07:36:40;16.85;;;2.28;;
64252;SDS011;50592;52.958;-7.470;2022-10-31T07:39:10;11.75;;;2.20;;
64252;SDS011;50592;52.958;-7.470;2022-10-31T07:41:40;15.75;;;2.60;;
64252;SDS011;50592;52.958;-7.470;2022-10-31T07:44:10;18.00;;;2.28;;
64252;SDS011;50592;52.958;-7.470;2022-10-31T07:47:15;17.50;;;2.42;;
64252;SDS011;50592;52.958;-7.470;2022-10-31T07:50:03;20.45;;;2.70;;
64252;SDS011;50592;52.958;-7.470;2022-10-31T07:53:11;15.50;;;3.03;;
64252;SDS011;50592;52.958;-7.470;2022-10-31T07:55:50;24.55;;;3.03;;
64252;SDS011;50592;52.958;-7.470;2022-10-31T07:58:18;16.00;;;2.40;;
64252;SDS011;50592;52.958;-7.470;2022-10-31T08:00:48;15.02;;;3.03;;
64252;SDS011;50592;52.958;-7.470;2022-10-31T08:03:24;11.77;;;2.45;;
64252;SDS011;50592;52.958;-7.470;2022-10-31T08:06:15;15.63;;;2.30;;
64252;SDS011;50592;52.958;-7.470;2022-10-31T08:09:07;12.45;;;2.08;;
64252;SDS011;50592;52.958;-7.470;2022-10-31T08:11:34;14.77;;;2.00;;
64252;SDS011;50592;52.958;-7.470;2022-10-31T08:14:03;14.48;;;2.13;;
64252;SDS011;50592;52.958;-7.470;2022-10-31T08:16:30;19.42;;;2.80;;
64252;SDS011;50592;52.958;-7.470;2022-10-31T08:19:02;15.57;;;2.20;;
64252;SDS011;50592;52.958;-7.470;2022-10-31T08:21:35;17.10;;;2.22;;
64252;SDS011;50592;52.958;-7.470;2022-10-31T08:24:06;20.50;;;2.58;;
64252;SDS011;50592;52.958;-7.470;2022-10-31T08:26:36;17.50;;;2.40;;
64252;SDS011;50592;52.958;-7.470;2022-10-31T08:29:09;23.63;;;3.13;;
64252;SDS011;50592;52.958;-7.470;2022-10-31T08:31:37;22.30;;;4.03;;
64252;SDS011;50592;52.958;-7.470;2022-10-31T08:34:25;18.60;;;2.50;;
64252;SDS011;50592;52.958;-7.470;2022-10-31T08:37:10;16.20;;;2.88;;
64252;SDS011;50592;52.958;-7.470;2022-10-31T08:39:45;22.52;;;2.65;;
64252;SDS011;50592;52.958;-7.470;2022-10-31T08:42:13;22.40;;;2.97;;
64252;SDS011;50592;52.958;-7.470;2022-10-31T08:44:42;21.08;;;2.83;;
64252;SDS011;50592;52.958;-7.470;2022-10-31T08:47:09;21.85;;;3.03;;
64252;SDS011;50592;52.958;-7.470;2022-10-31T08:49:38;22.48;;;3.47;;
64252;SDS011;50592;52.958;-7.470;2022-10-31T08:52:05;26.20;;;4.18;;
64252;SDS011;50592;52.958;-7.470;2022-10-31T08:54:39;23.65;;;3.10;;
64252;SDS011;50592;52.958;-7.470;2022-10-31T08:57:26;19.90;;;3.55;;
64252;SDS011;50592;52.958;-7.470;2022-10-31T08:59:55;31.27;;;3.83;;
64252;SDS011;50592;52.958;-7.470;2022-10-31T09:02:46;20.10;;;2.72;;
64252;SDS011;50592;52.958;-7.470;2022-10-31T09:05:13;18.27;;;2.35;;
64252;SDS011;50592;52.958;-7.470;2022-10-31T09:07:43;16.63;;;2.80;;
64252;SDS011;50592;52.958;-7.470;2022-10-31T09:10:09;14.68;;;2.13;;
64252;SDS011;50592;52.958;-7.470;2022-10-31T09:12:39;20.95;;;3.35;;
64252;SDS011;50592;52.958;-7.470;2022-10-31T09:15:07;15.68;;;2.83;;
64252;SDS011;50592;52.958;-7.470;2022-10-31T09:17:45;17.23;;;2.63;;
64252;SDS011;50592;52.958;-7.470;2022-10-31T09:20:31;14.07;;;2.25;;
64252;SDS011;50592;52.958;-7.470;2022-10-31T09:23:08;13.20;;;1.85;;
64252;SDS011;50592;52.958;-7.470;2022-10-31T09:25:43;18.38;;;2.42;;
64252;SDS011;50592;52.958;-7.470;2022-10-31T09:28:32;10.85;;;1.80;;
64252;SDS011;50592;52.958;-7.470;2022-10-31T09:31:05;11.68;;;1.63;;
64252;SDS011;50592;52.958;-7.470;2022-10-31T09:34:04;9.75;;;1.17;;
64252;SDS011;50592;52.958;-7.470;2022-10-31T09:36:37;5.63;;;1.20;;
64252;SDS011;50592;52.958;-7.470;2022-10-31T09:39:15;7.85;;;1.23;;
64252;SDS011;50592;52.958;-7.470;2022-10-31T09:54:25;9.25;;;1.17;;
64252;SDS011;50592;52.958;-7.470;2022-10-31T09:56:38;9.07;;;1.33;;
64252;SDS011;50592;52.958;-7.470;2022-10-31T09:59:11;6.70;;;1.08;;
64252;SDS011;50592;52.958;-7.470;2022-10-31T10:01:53;8.88;;;0.93;;
64252;SDS011;50592;52.958;-7.470;2022-10-31T10:04:37;5.10;;;1.17;;
64252;SDS011;50592;52.958;-7.470;2022-10-31T10:07:38;4.10;;;0.82;;
64252;SDS011;50592;52.958;-7.470;2022-10-31T10:16:15;5.07;;;0.80;;
64252;SDS011;50592;52.958;-7.470;2022-10-31T10:18:58;5.70;;;1.10;;
64252;SDS011;50592;52.958;-7.470;2022-10-31T10:21:39;8.32;;;1.42;;
64252;SDS011;50592;52.958;-7.470;2022-10-31T10:27:12;9.65;;;1.17;;
64252;SDS011;50592;52.958;-7.470;2022-10-31T10:29:47;8.68;;;0.90;;
64252;SDS011;50592;52.958;-7.470;2022-10-31T10:32:28;8.75;;;2.03;;
64252;SDS011;50592;52.958;-7.470;2022-10-31T10:35:22;5.50;;;1.10;;
64252;SDS011;50592;52.958;-7.470;2022-10-31T10:37:54;5.25;;;0.70;;
64252;SDS011;50592;52.958;-7.470;2022-10-31T10:40:29;10.10;;;1.40;;
64252;SDS011;50592;52.958;-7.470;2022-10-31T10:46:19;7.57;;;0.85;;
64252;SDS011;50592;52.958;-7.470;2022-10-31T10:49:32;5.75;;;1.25;;
64252;SDS011;50592;52.958;-7.470;2022-10-31T10:55:06;8.13;;;0.80;;
64252;SDS011;50592;52.958;-7.470;2022-10-31T11:00:40;3.25;;;0.50;;
64252;SDS011;50592;52.958;-7.470;2022-10-31T11:03:09;4.30;;;0.90;;
64252;SDS011;50592;52.958;-7.470;2022-10-31T11:05:56;4.43;;;0.50;;
64252;SDS011;50592;52.958;-7.470;2022-10-31T11:08:25;6.82;;;0.98;;
64252;SDS011;50592;52.958;-7.470;2022-10-31T11:13:33;5.75;;;0.52;;
64252;SDS011;50592;52.958;-7.470;2022-10-31T11:16:06;6.75;;;0.70;;
64252;SDS011;50592;52.958;-7.470;2022-10-31T11:18:38;3.75;;;0.93;;
64252;SDS011;50592;52.958;-7.470;2022-10-31T11:21:21;5.93;;;0.93;;
64252;SDS011;50592;52.958;-7.470;2022-10-31T11:26:40;5.97;;;0.70;;
64252;SDS011;50592;52.958;-7.470;2022-10-31T11:31:55;4.43;;;0.73;;
64252;SDS011;50592;52.958;-7.470;2022-10-31T11:34:29;5.55;;;1.10;;
64252;SDS011;50592;52.958;-7.470;2022-10-31T11:37:15;2.92;;;0.93;;
64252;SDS011;50592;52.958;-7.470;2022-10-31T11:39:54;6.53;;;1.15;;
64252;SDS011;50592;52.958;-7.470;2022-10-31T11:42:56;6.10;;;1.08;;
64252;SDS011;50592;52.958;-7.470;2022-10-31T11:45:40;5.70;;;0.70;;
64252;SDS011;50592;52.958;-7.470;2022-10-31T11:48:22;5.60;;;0.95;;
64252;SDS011;50592;52.958;-7.470;2022-10-31T11:50:54;7.50;;;0.95;;
64252;SDS011;50592;52.958;-7.470;2022-10-31T11:53:30;3.40;;;0.65;;
64252;SDS011;50592;52.958;-7.470;2022-10-31T11:56:09;5.97;;;0.95;;
64252;SDS011;50592;52.958;-7.470;2022-10-31T11:58:54;8.77;;;0.82;;
64252;SDS011;50592;52.958;-7.470;2022-10-31T12:01:32;6.78;;;0.57;;
64252;SDS011;50592;52.958;-7.470;2022-10-31T12:04:15;5.55;;;0.70;;
64252;SDS011;50592;52.958;-7.470;2022-10-31T12:06:46;3.65;;;0.60;;
64252;SDS011;50592;52.958;-7.470;2022-10-31T12:15:32;3.70;;;0.50;;
64252;SDS011;50592;52.958;-7.470;2022-10-31T12:18:28;3.70;;;0.38;;
64252;SDS011;50592;52.958;-7.470;2022-10-31T12:38:22;5.07;;;1.95;;
64252;SDS011;50592;52.958;-7.470;2022-10-31T12:41:25;6.18;;;1.60;;
64252;SDS011;50592;52.958;-7.470;2022-10-31T12:44:06;12.63;;;5.78;;
64252;SDS011;50592;52.958;-7.470;2022-10-31T12:47:01;6.45;;;1.52;;
64252;SDS011;50592;52.958;-7.470;2022-10-31T12:49:54;7.05;;;3.72;;
64252;SDS011;50592;52.958;-7.470;2022-10-31T12:52:54;6.85;;;3.35;;
64252;SDS011;50592;52.958;-7.470;2022-10-31T12:58:17;7.03;;;3.42;;
64252;SDS011;50592;52.958;-7.470;2022-10-31T13:01:17;9.68;;;2.53;;
64252;SDS011;50592;52.958;-7.470;2022-10-31T13:04:01;5.07;;;1.00;;
64252;SDS011;50592;52.958;-7.470;2022-10-31T13:06:52;1.85;;;0.50;;
64252;SDS011;50592;52.958;-7.470;2022-10-31T13:09:53;5.38;;;0.75;;
64252;SDS011;50592;52.958;-7.470;2022-10-31T13:12:53;7.15;;;0.88;;
64252;SDS011;50592;52.958;-7.470;2022-10-31T13:15:27;1.95;;;0.45;;
64252;SDS011;50592;52.958;-7.470;2022-10-31T13:18:04;4.28;;;0.73;;
64252;SDS011;50592;52.958;-7.470;2022-10-31T13:20:43;5.28;;;0.60;;
64252;SDS011;50592;52.958;-7.470;2022-10-31T13:23:20;6.47;;;1.00;;
64252;SDS011;50592;52.958;-7.470;2022-10-31T13:26:14;5.53;;;0.88;;
64252;SDS011;50592;52.958;-7.470;2022-10-31T13:29:05;5.70;;;1.17;;
64252;SDS011;50592;52.958;-7.470;2022-10-31T13:31:45;3.55;;;0.57;;
64252;SDS011;50592;52.958;-7.470;2022-10-31T14:02:46;4.38;;;0.90;;
64252;SDS011;50592;52.958;-7.470;2022-10-31T14:09:20;4.60;;;0.68;;
64252;SDS011;50592;52.958;-7.470;2022-10-31T14:11:53;4.30;;;0.80;;
64252;SDS011;50592;52.958;-7.470;2022-10-31T14:14:23;7.00;;;1.10;;
64252;SDS011;50592;52.958;-7.470;2022-10-31T14:16:59;7.40;;;1.27;;
64252;SDS011;50592;52.958;-7.470;2022-10-31T14:19:30;3.40;;;0.80;;
64252;SDS011;50592;52.958;-7.470;2022-10-31T14:21:57;8.48;;;0.93;;
64252;SDS011;50592;52.958;-7.470;2022-10-31T14:29:30;3.33;;;0.60;;
64252;SDS011;50592;52.958;-7.470;2022-10-31T14:35:23;5.55;;;1.67;;
64252;SDS011;50592;52.958;-7.470;2022-10-31T14:44:33;4.60;;;0.90;;
64252;SDS011;50592;52.958;-7.470;2022-10-31T14:50:18;8.40;;;1.30;;
64252;SDS011;50592;52.958;-7.470;2022-10-31T14:52:53;11.48;;;1.67;;
64252;SDS011;50592;52.958;-7.470;2022-10-31T14:55:30;12.15;;;1.65;;
64252;SDS011;50592;52.958;-7.470;2022-10-31T14:58:13;12.95;;;2.30;;
64252;SDS011;50592;52.958;-7.470;2022-10-31T15:01:03;20.48;;;2.63;;
64252;SDS011;50592;52.958;-7.470;2022-10-31T15:03:38;12.48;;;1.27;;
64252;SDS011;50592;52.958;-7.470;2022-10-31T15:06:19;12.15;;;1.75;;
64252;SDS011;50592;52.958;-7.470;2022-10-31T15:08:55;6.45;;;1.40;;
64252;SDS011;50592;52.958;-7.470;2022-10-31T15:11:36;11.77;;;1.50;;
64252;SDS011;50592;52.958;-7.470;2022-10-31T15:14:19;7.88;;;1.52;;
64252;SDS011;50592;52.958;-7.470;2022-10-31T15:17:03;12.90;;;1.58;;
64252;SDS011;50592;52.958;-7.470;2022-10-31T15:19:33;12.82;;;1.52;;
64252;SDS011;50592;52.958;-7.470;2022-10-31T15:22:04;13.25;;;1.73;;
64252;SDS011;50592;52.958;-7.470;2022-10-31T15:24:37;7.60;;;1.38;;
64252;SDS011;50592;52.958;-7.470;2022-10-31T15:27:14;6.75;;;1.08;;
64252;SDS011;50592;52.958;-7.470;2022-10-31T15:30:26;8.85;;;1.52;;
64252;SDS011;50592;52.958;-7.470;2022-10-31T15:32:57;6.28;;;0.95;;
64252;SDS011;50592;52.958;-7.470;2022-10-31T15:35:34;6.60;;;1.25;;
64252;SDS011;50592;52.958;-7.470;2022-10-31T15:38:21;9.10;;;1.30;;
64252;SDS011;50592;52.958;-7.470;2022-10-31T15:41:04;8.52;;;1.05;;
64252;SDS011;50592;52.958;-7.470;2022-10-31T15:44:00;8.23;;;1.48;;
64252;SDS011;50592;52.958;-7.470;2022-10-31T15:46:42;5.90;;;1.17;;
64252;SDS011;50592;52.958;-7.470;2022-10-31T15:49:18;9.88;;;1.50;;
64252;SDS011;50592;52.958;-7.470;2022-10-31T15:57:41;9.32;;;1.40;;
64252;SDS011;50592;52.958;-7.470;2022-10-31T16:00:43;6.40;;;1.60;;
64252;SDS011;50592;52.958;-7.470;2022-10-31T16:03:34;11.75;;;1.33;;
64252;SDS011;50592;52.958;-7.470;2022-10-31T16:40:18;1.10;;;0.30;;
64252;SDS011;50592;52.958;-7.470;2022-10-31T16:42:45;2.75;;;0.40;;
64252;SDS011;50592;52.958;-7.470;2022-10-31T16:45:22;2.53;;;0.60;;
64252;SDS011;50592;52.958;-7.470;2022-10-31T16:48:17;2.50;;;0.68;;
64252;SDS011;50592;52.958;-7.470;2022-10-31T16:50:49;4.28;;;0.52;;
64252;SDS011;50592;52.958;-7.470;2022-10-31T16:53:22;10.07;;;4.82;;
64252;SDS011;50592;52.958;-7.470;2022-10-31T16:55:54;3.58;;;0.60;;
64252;SDS011;50592;52.958;-7.470;2022-10-31T16:58:32;2.40;;;0.45;;
64252;SDS011;50592;52.958;-7.470;2022-10-31T17:01:04;2.80;;;0.43;;
64252;SDS011;50592;52.958;-7.470;2022-10-31T17:03:35;5.43;;;0.70;;
64252;SDS011;50592;52.958;-7.470;2022-10-31T17:06:05;2.75;;;0.50;;
64252;SDS011;50592;52.958;-7.470;2022-10-31T17:08:39;1.55;;;0.47;;
64252;SDS011;50592;52.958;-7.470;2022-10-31T17:11:20;10.80;;;3.95;;
64252;SDS011;50592;52.958;-7.470;2022-10-31T17:13:52;4.25;;;0.93;;
64252;SDS011;50592;52.958;-7.470;2022-10-31T17:16:19;2.28;;;0.65;;
64252;SDS011;50592;52.958;-7.470;2022-10-31T17:18:49;4.63;;;0.60;;
64252;SDS011;50592;52.958;-7.470;2022-10-31T17:21:18;2.72;;;0.70;;
64252;SDS011;50592;52.958;-7.470;2022-10-31T17:23:51;4.45;;;0.65;;
64252;SDS011;50592;52.958;-7.470;2022-10-31T17:26:18;10.70;;;0.80;;
64252;SDS011;50592;52.958;-7.470;2022-10-31T17:28:49;3.50;;;0.60;;
64252;SDS011;50592;52.958;-7.470;2022-10-31T17:31:19;4.13;;;0.73;;
64252;SDS011;50592;52.958;-7.470;2022-10-31T17:33:56;5.13;;;0.70;;
64252;SDS011;50592;52.958;-7.470;2022-10-31T17:36:25;0.88;;;0.40;;
64252;SDS011;50592;52.958;-7.470;2022-10-31T17:39:27;7.60;;;1.52;;
64252;SDS011;50592;52.958;-7.470;2022-10-31T17:41:59;4.00;;;1.00;;
64252;SDS011;50592;52.958;-7.470;2022-10-31T17:44:45;3.40;;;0.75;;
64252;SDS011;50592;52.958;-7.470;2022-10-31T17:47:13;3.80;;;0.82;;
64252;SDS011;50592;52.958;-7.470;2022-10-31T17:49:52;3.35;;;0.77;;
64252;SDS011;50592;52.958;-7.470;2022-10-31T17:52:32;4.93;;;0.90;;
64252;SDS011;50592;52.958;-7.470;2022-10-31T17:55:12;4.75;;;0.80;;
64252;SDS011;50592;52.958;-7.470;2022-10-31T17:57:47;2.60;;;0.50;;
64252;SDS011;50592;52.958;-7.470;2022-10-31T18:00:23;1.70;;;0.47;;
64252;SDS011;50592;52.958;-7.470;2022-10-31T18:02:58;3.60;;;0.75;;
64252;SDS011;50592;52.958;-7.470;2022-10-31T18:05:31;3.88;;;0.50;;
64252;SDS011;50592;52.958;-7.470;2022-10-31T18:08:02;3.85;;;0.70;;
64252;SDS011;50592;52.958;-7.470;2022-10-31T18:10:33;6.05;;;1.00;;
64252;SDS011;50592;52.958;-7.470;2022-10-31T18:16:24;4.15;;;1.35;;
64252;SDS011;50592;52.958;-7.470;2022-10-31T18:19:01;4.38;;;0.73;;
64252;SDS011;50592;52.958;-7.470;2022-10-31T18:25:20;4.05;;;0.80;;
64252;SDS011;50592;52.958;-7.470;2022-10-31T18:27:50;3.47;;;1.00;;
64252;SDS011;50592;52.958;-7.470;2022-10-31T18:30:20;4.75;;;0.85;;
64252;SDS011;50592;52.958;-7.470;2022-10-31T18:32:50;2.22;;;0.80;;
64252;SDS011;50592;52.958;-7.470;2022-10-31T18:35:17;5.95;;;0.93;;
64252;SDS011;50592;52.958;-7.470;2022-10-31T18:37:47;3.50;;;1.05;;
64252;SDS011;50592;52.958;-7.470;2022-10-31T18:40:14;4.40;;;1.13;;
64252;SDS011;50592;52.958;-7.470;2022-10-31T18:42:44;6.47;;;1.13;;